Time;durP1;ratioP1;P1;durP2;ratioP2;P2;SDS_P1;SDS_P2;PMS_P1;PMS_P2;Temp;Humidity;BMP_temperature;BMP_pressure;BME280_temperature;BME280_humidity;BME280_pressure;Samples;Min_cycle;Max_cycle;Signal;HPM_P1;HPM_P2
2023/09/27 00:00:46;;;;;;;28.48;25.58;;;13.30;99.90;;;;;;5065645;28;20050;-28
2023/09/27 00:03:11;;;;;;;28.92;25.85;;;13.30;99.90;;;;;;5042831;28;20029;-27
2023/09/27 00:05:37;;;;;;;29.70;26.60;;;13.30;99.90;;;;;;5059404;28;20061;-27
2023/09/27 00:08:04;;;;;;;29.42;26.20;;;13.30;99.90;;;;;;5061495;28;20528;-27
2023/09/27 00:10:29;;;;;;;29.55;26.58;;;13.30;99.90;;;;;;5067998;28;20523;-28
2023/09/27 00:12:55;;;;;;;30.08;26.90;;;13.30;99.90;;;;;;5055996;28;20083;-27
2023/09/27 00:15:21;;;;;;;35.38;31.80;;;13.30;99.90;;;;;;5066276;28;20029;-27
2023/09/27 00:17:48;;;;;;;29.55;26.27;;;13.20;99.90;;;;;;5065390;28;20044;-28
2023/09/27 00:20:17;;;;;;;35.13;31.17;;;13.30;99.90;;;;;;5059375;28;20447;-27
2023/09/27 00:22:43;;;;;;;27.42;24.63;;;13.20;99.90;;;;;;5057728;28;20035;-27
2023/09/27 00:25:09;;;;;;;28.42;25.63;;;13.30;99.90;;;;;;5070143;28;20063;-27
2023/09/27 00:27:36;;;;;;;25.67;23.08;;;13.30;99.90;;;;;;5061017;28;20150;-28
2023/09/27 00:30:03;;;;;;;30.83;27.67;;;13.30;99.90;;;;;;5067818;28;20135;-27
2023/09/27 00:32:29;;;;;;;29.17;26.08;;;13.30;99.90;;;;;;5043519;28;20045;-27
2023/09/27 00:34:55;;;;;;;29.25;26.15;;;13.30;99.90;;;;;;5040835;28;20059;-28
2023/09/27 00:37:20;;;;;;;36.80;32.83;;;13.20;99.90;;;;;;5038018;28;20032;-27
2023/09/27 00:39:46;;;;;;;33.05;29.52;;;13.20;99.90;;;;;;5055626;28;20079;-27
2023/09/27 00:42:12;;;;;;;32.95;29.50;;;13.20;99.90;;;;;;5058621;28;20040;-28
2023/09/27 00:44:38;;;;;;;40.17;35.40;;;13.10;99.90;;;;;;5056003;28;20500;-27
2023/09/27 00:47:05;;;;;;;37.47;33.60;;;13.10;99.90;;;;;;5063364;28;20037;-28
2023/09/27 00:49:32;;;;;;;33.35;30.08;;;13.10;99.90;;;;;;5061360;28;20129;-28
2023/09/27 00:51:59;;;;;;;33.45;29.90;;;13.10;99.90;;;;;;5038573;28;20052;-28
2023/09/27 00:54:25;;;;;;;36.40;30.92;;;13.10;99.90;;;;;;5059156;28;20049;-27
2023/09/27 00:56:52;;;;;;;34.17;30.52;;;13.10;99.90;;;;;;5055571;28;20147;-27
2023/09/27 00:59:18;;;;;;;37.17;32.42;;;13.10;99.90;;;;;;5062384;28;20051;-28
2023/09/27 01:01:45;;;;;;;35.58;30.75;;;13.10;99.90;;;;;;5052332;28;20089;-28
2023/09/27 01:04:13;;;;;;;34.00;30.38;;;13.10;99.90;;;;;;5062039;28;20033;-29
2023/09/27 01:06:40;;;;;;;34.20;30.55;;;13.10;99.90;;;;;;5053596;28;20581;-28
2023/09/27 01:09:05;;;;;;;32.45;29.02;;;13.10;99.90;;;;;;5062206;28;20116;-27
2023/09/27 01:11:32;;;;;;;33.95;30.27;;;13.10;99.90;;;;;;5055951;28;20127;-27
2023/09/27 01:13:58;;;;;;;35.55;31.77;;;13.10;99.90;;;;;;5069445;28;20036;-27
2023/09/27 01:16:24;;;;;;;32.00;28.58;;;13.00;99.90;;;;;;5061216;28;20048;-27
2023/09/27 01:18:49;;;;;;;33.30;28.98;;;13.00;99.90;;;;;;5053221;28;20045;-27
2023/09/27 01:21:19;;;;;;;32.25;28.90;;;12.90;99.90;;;;;;5060071;28;20036;-27
2023/09/27 01:23:48;;;;;;;35.83;32.03;;;12.90;99.90;;;;;;5052831;28;20049;-27
2023/09/27 01:26:16;;;;;;;34.70;28.90;;;12.90;99.90;;;;;;5036455;28;20072;-26
2023/09/27 01:28:45;;;;;;;35.60;31.77;;;12.90;99.90;;;;;;5071396;28;20037;-27
2023/09/27 01:31:10;;;;;;;37.03;33.00;;;12.90;99.90;;;;;;5051116;28;20107;-27
2023/09/27 01:33:36;;;;;;;33.25;29.95;;;12.90;99.90;;;;;;5072923;28;20047;-29
2023/09/27 01:36:03;;;;;;;35.47;31.70;;;12.90;99.90;;;;;;5054601;28;20039;-27
2023/09/27 01:38:29;;;;;;;35.72;32.03;;;12.90;99.90;;;;;;5056493;28;20049;-29
2023/09/27 01:40:55;;;;;;;33.28;29.85;;;12.80;99.90;;;;;;5058939;28;20083;-27
2023/09/27 01:43:21;;;;;;;37.88;34.03;;;12.80;99.90;;;;;;5056491;28;20060;-27
2023/09/27 01:45:46;;;;;;;34.55;30.67;;;12.80;99.90;;;;;;5063638;28;20064;-27
2023/09/27 01:48:12;;;;;;;36.72;32.63;;;12.80;99.90;;;;;;5033876;28;20033;-28
2023/09/27 01:50:38;;;;;;;36.13;32.42;;;12.80;99.90;;;;;;5057226;28;20116;-28
2023/09/27 01:53:04;;;;;;;34.25;30.75;;;12.80;99.90;;;;;;5060022;28;20044;-28
2023/09/27 01:55:31;;;;;;;37.90;33.58;;;12.70;99.90;;;;;;5061428;28;20407;-27
2023/09/27 01:57:57;;;;;;;37.38;33.42;;;12.70;99.90;;;;;;5058017;28;20072;-27
2023/09/27 02:00:23;;;;;;;35.92;32.00;;;12.70;99.90;;;;;;5071002;28;20044;-27
2023/09/27 02:02:50;;;;;;;37.95;34.00;;;12.70;99.90;;;;;;5055255;28;20049;-28
2023/09/27 02:05:16;;;;;;;34.25;30.60;;;12.70;99.90;;;;;;5057301;28;20032;-27
2023/09/27 02:07:42;;;;;;;33.78;30.38;;;12.60;99.90;;;;;;5062361;28;20445;-27
2023/09/27 02:10:11;;;;;;;39.03;34.90;;;12.60;99.90;;;;;;5018679;28;20400;-28
2023/09/27 02:12:38;;;;;;;35.85;32.00;;;12.60;99.90;;;;;;5054414;28;20040;-27
2023/09/27 02:15:08;;;;;;;33.92;30.35;;;12.60;99.90;;;;;;5057895;28;20045;-27
2023/09/27 02:17:35;;;;;;;34.85;31.30;;;12.60;99.90;;;;;;5056667;28;20455;-28
2023/09/27 02:20:05;;;;;;;34.95;31.33;;;12.50;99.90;;;;;;5043648;28;20082;-27
2023/09/27 02:22:31;;;;;;;35.40;31.67;;;12.50;99.90;;;;;;5068870;28;20558;-27
2023/09/27 02:24:57;;;;;;;35.13;31.40;;;12.50;99.90;;;;;;5070171;28;20140;-27
2023/09/27 02:27:23;;;;;;;37.58;33.35;;;12.40;99.90;;;;;;5057719;28;20044;-27
2023/09/27 02:29:49;;;;;;;35.97;32.25;;;12.40;99.90;;;;;;5060922;28;20043;-28
2023/09/27 02:32:15;;;;;;;37.78;33.75;;;12.40;99.90;;;;;;5059485;28;20432;-27
2023/09/27 02:34:42;;;;;;;37.17;33.15;;;12.30;99.90;;;;;;5060434;28;20092;-27
2023/09/27 02:37:07;;;;;;;35.97;32.20;;;12.30;99.90;;;;;;5063196;28;20033;-29
2023/09/27 02:39:33;;;;;;;35.88;32.17;;;12.30;99.90;;;;;;5058135;28;20043;-27
2023/09/27 02:41:59;;;;;;;36.42;32.70;;;12.30;99.90;;;;;;5056952;28;20037;-27
2023/09/27 02:44:26;;;;;;;37.70;33.78;;;12.30;99.90;;;;;;5054805;28;20052;-27
2023/09/27 02:46:52;;;;;;;36.80;32.85;;;12.30;99.90;;;;;;5056819;28;20488;-27
2023/09/27 02:49:19;;;;;;;36.50;32.38;;;12.30;99.90;;;;;;5061879;28;20035;-27
2023/09/27 02:51:47;;;;;;;34.08;30.42;;;12.30;99.90;;;;;;5045550;28;20053;-26
2023/09/27 02:54:14;;;;;;;37.40;33.22;;;12.20;99.90;;;;;;5064008;28;20068;-27
2023/09/27 02:56:43;;;;;;;38.13;34.08;;;12.20;99.90;;;;;;5063261;28;20127;-27
2023/09/27 02:59:10;;;;;;;39.45;34.25;;;12.20;99.90;;;;;;5058382;28;20115;-27
2023/09/27 03:01:40;;;;;;;45.78;37.53;;;12.20;99.90;;;;;;5062596;28;20045;-28
2023/09/27 03:04:06;;;;;;;38.60;34.40;;;12.20;99.90;;;;;;5055724;28;20100;-28
2023/09/27 03:06:33;;;;;;;37.60;33.63;;;12.20;99.90;;;;;;5041992;28;20048;-28
2023/09/27 03:08:58;;;;;;;35.83;32.20;;;12.10;99.90;;;;;;5055131;28;20503;-27
2023/09/27 03:11:24;;;;;;;37.45;32.83;;;12.10;99.90;;;;;;5058164;28;20036;-27
2023/09/27 03:13:50;;;;;;;34.88;31.27;;;12.20;99.90;;;;;;5066849;28;20045;-28
2023/09/27 03:16:15;;;;;;;37.35;33.35;;;12.10;99.90;;;;;;5037680;28;20108;-28
2023/09/27 03:18:41;;;;;;;36.22;32.42;;;12.10;99.90;;;;;;5061982;28;20124;-27
2023/09/27 03:21:06;;;;;;;36.72;32.75;;;12.10;99.90;;;;;;5054375;28;20036;-27
2023/09/27 03:23:32;;;;;;;38.58;34.47;;;12.10;99.90;;;;;;5070397;28;20094;-28
2023/09/27 03:25:58;;;;;;;36.85;32.83;;;12.10;99.90;;;;;;5056481;28;20391;-27
2023/09/27 03:28:23;;;;;;;45.17;40.28;;;12.10;99.90;;;;;;5060418;28;20063;-27
2023/09/27 03:30:49;;;;;;;38.00;34.03;;;12.20;99.90;;;;;;5054750;28;20283;-28
2023/09/27 03:33:15;;;;;;;37.75;33.63;;;12.20;99.90;;;;;;5059510;28;20452;-28
2023/09/27 03:35:42;;;;;;;39.40;35.15;;;12.10;99.90;;;;;;5061906;28;20123;-27
2023/09/27 03:38:08;;;;;;;36.92;33.20;;;12.10;99.90;;;;;;5062627;28;20033;-27
2023/09/27 03:40:33;;;;;;;41.40;36.55;;;12.10;99.90;;;;;;5070697;28;20032;-27
2023/09/27 03:42:59;;;;;;;40.92;36.38;;;12.10;99.90;;;;;;5056593;28;20032;-27
2023/09/27 03:45:25;;;;;;;52.88;45.90;;;12.10;99.90;;;;;;5042800;28;20127;-26
2023/09/27 03:47:51;;;;;;;44.38;39.58;;;12.10;99.90;;;;;;5067263;28;20040;-27
2023/09/27 03:50:17;;;;;;;44.35;39.72;;;12.10;99.90;;;;;;5062290;28;20029;-27
2023/09/27 03:52:43;;;;;;;42.05;37.50;;;12.10;99.90;;;;;;5062038;28;20063;-27
2023/09/27 03:55:10;;;;;;;47.70;40.17;;;12.10;99.90;;;;;;5056409;28;20040;-27
2023/09/27 03:57:36;;;;;;;45.72;40.78;;;12.20;99.90;;;;;;5062294;28;20045;-27
2023/09/27 04:00:06;;;;;;;41.60;37.10;;;12.10;99.90;;;;;;5061899;28;20484;-27
2023/09/27 04:02:33;;;;;;;43.15;38.65;;;12.10;99.90;;;;;;5062984;28;20075;-28
2023/09/27 04:04:58;;;;;;;43.75;39.13;;;12.10;99.90;;;;;;5060452;28;20258;-26
2023/09/27 04:07:24;;;;;;;43.30;38.70;;;12.10;99.90;;;;;;5058496;28;20047;-27
2023/09/27 04:09:50;;;;;;;45.45;38.45;;;12.10;99.90;;;;;;5058487;28;20047;-26
2023/09/27 04:12:16;;;;;;;42.45;37.78;;;12.10;99.90;;;;;;5058214;28;20115;-27
2023/09/27 04:14:41;;;;;;;39.33;35.05;;;12.10;99.90;;;;;;5068524;28;20036;-27
2023/09/27 04:17:07;;;;;;;41.97;37.47;;;12.10;99.90;;;;;;5038122;28;20040;-27
2023/09/27 04:19:33;;;;;;;42.05;36.28;;;12.10;99.90;;;;;;5066079;28;20045;-27
2023/09/27 04:21:59;;;;;;;42.08;37.45;;;12.10;99.90;;;;;;5055099;28;20428;-27
2023/09/27 04:24:26;;;;;;;40.97;36.67;;;12.10;99.90;;;;;;5059143;28;20041;-27
2023/09/27 04:26:53;;;;;;;46.35;41.13;;;12.00;99.90;;;;;;5042343;28;20040;-27
2023/09/27 04:29:19;;;;;;;52.38;45.67;;;12.00;99.90;;;;;;5063223;28;20040;-27
2023/09/27 04:31:45;;;;;;;42.25;37.65;;;12.00;99.90;;;;;;5056235;28;20091;-27
2023/09/27 04:34:11;;;;;;;44.22;39.47;;;12.00;99.90;;;;;;5067017;28;20431;-27
2023/09/27 04:36:37;;;;;;;40.95;36.50;;;12.00;99.90;;;;;;5070565;28;20044;-27
2023/09/27 04:39:07;;;;;;;44.63;38.08;;;12.00;99.90;;;;;;5055730;28;20119;-29
2023/09/27 04:41:33;;;;;;;41.58;37.08;;;12.00;99.90;;;;;;5062019;28;20044;-27
2023/09/27 04:43:59;;;;;;;43.33;38.60;;;12.00;99.90;;;;;;5063351;28;20432;-27
2023/09/27 04:46:25;;;;;;;45.60;40.72;;;12.00;99.90;;;;;;5047081;28;20064;-27
2023/09/27 04:48:51;;;;;;;49.33;43.78;;;11.90;99.90;;;;;;5052906;28;20463;-27
2023/09/27 04:51:16;;;;;;;46.78;41.65;;;11.90;99.90;;;;;;5068113;28;20036;-27
2023/09/27 04:53:42;;;;;;;49.20;43.85;;;11.90;99.90;;;;;;5038901;28;20036;-27
2023/09/27 04:56:11;;;;;;;49.28;39.67;;;12.00;99.90;;;;;;5048034;28;20487;-28
2023/09/27 04:58:41;;;;;;;46.08;41.05;;;12.00;99.90;;;;;;5066018;28;20045;-27
2023/09/27 05:01:07;;;;;;;43.05;38.35;;;12.00;99.90;;;;;;5060912;28;20044;-27
2023/09/27 05:03:33;;;;;;;42.47;37.83;;;11.90;99.90;;;;;;5056929;28;20118;-27
2023/09/27 05:05:58;;;;;;;42.15;37.42;;;11.90;99.90;;;;;;5057663;28;20043;-28
2023/09/27 05:08:25;;;;;;;45.17;40.33;;;11.90;99.90;;;;;;5064292;28;20076;-27
2023/09/27 05:10:52;;;;;;;45.85;40.40;;;11.90;99.90;;;;;;5052681;28;20103;-27
2023/09/27 05:13:21;;;;;;;46.47;41.63;;;11.90;99.90;;;;;;5059770;28;20044;-28
2023/09/27 05:15:50;;;;;;;45.63;39.45;;;11.90;99.90;;;;;;5065881;28;20084;-27
2023/09/27 05:18:15;;;;;;;42.22;37.45;;;11.90;99.90;;;;;;5062677;28;20075;-27
2023/09/27 05:20:41;;;;;;;40.97;36.58;;;11.90;99.90;;;;;;5038780;28;20076;-27
2023/09/27 05:23:07;;;;;;;47.00;41.95;;;11.90;99.90;;;;;;5061324;28;20036;-28
2023/09/27 05:25:33;;;;;;;42.97;38.38;;;11.90;99.90;;;;;;5053116;28;20059;-27
2023/09/27 05:27:58;;;;;;;47.83;39.97;;;11.90;99.90;;;;;;5064026;28;20070;-27
2023/09/27 05:30:24;;;;;;;43.58;38.97;;;12.00;99.90;;;;;;5059945;28;20081;-28
2023/09/27 05:32:49;;;;;;;54.25;46.08;;;12.00;99.90;;;;;;5043176;28;20510;-27
2023/09/27 05:35:15;;;;;;;50.42;41.88;;;12.00;99.90;;;;;;5058927;28;20573;-27
2023/09/27 05:37:44;;;;;;;46.35;41.22;;;12.00;99.90;;;;;;5060330;28;20033;-27
2023/09/27 05:40:11;;;;;;;45.42;40.60;;;12.10;99.90;;;;;;5057188;28;20040;-27
2023/09/27 05:42:40;;;;;;;45.72;40.33;;;12.20;99.90;;;;;;5069503;28;20123;-27
2023/09/27 05:45:08;;;;;;;45.47;40.63;;;12.20;99.90;;;;;;5059039;28;20033;-27
2023/09/27 05:47:34;;;;;;;49.33;44.08;;;12.30;99.90;;;;;;5061254;28;20040;-27
2023/09/27 05:49:59;;;;;;;46.00;40.65;;;12.30;99.90;;;;;;5062157;28;20046;-28
2023/09/27 05:52:27;;;;;;;48.35;42.22;;;12.30;99.90;;;;;;5062684;28;20076;-27
2023/09/27 05:54:52;;;;;;;50.53;44.35;;;12.40;99.90;;;;;;5069390;28;20117;-27
2023/09/27 05:57:18;;;;;;;50.85;42.75;;;12.40;99.90;;;;;;5063425;28;20460;-26
2023/09/27 05:59:45;;;;;;;42.97;38.13;;;12.50;99.90;;;;;;5059620;28;20049;-27
2023/09/27 06:02:16;;;;;;;42.50;37.97;;;12.50;99.90;;;;;;5056741;28;20037;-27
2023/09/27 06:04:47;;;;;;;34.92;31.60;;;12.50;99.90;;;;;;5068661;28;20495;-28
2023/09/27 06:07:14;;;;;;;33.05;29.80;;;12.60;99.90;;;;;;5067218;28;20033;-27
2023/09/27 06:09:41;;;;;;;36.53;32.70;;;12.60;99.90;;;;;;5065494;28;20043;-28
2023/09/27 06:12:08;;;;;;;40.88;35.75;;;12.70;99.90;;;;;;5058389;28;20492;-27
2023/09/27 06:14:34;;;;;;;35.55;31.73;;;12.70;99.90;;;;;;5064445;28;20059;-27
2023/09/27 06:17:02;;;;;;;38.60;34.10;;;12.80;99.90;;;;;;5058330;28;20039;-27
2023/09/27 06:19:28;;;;;;;36.45;32.88;;;12.80;99.90;;;;;;5049618;28;20098;-27
2023/09/27 06:21:53;;;;;;;39.25;34.80;;;12.80;99.90;;;;;;5059726;28;20037;-27
2023/09/27 06:24:19;;;;;;;43.70;38.20;;;12.90;99.90;;;;;;5044649;28;20036;-28
2023/09/27 06:26:45;;;;;;;43.28;38.78;;;12.90;99.90;;;;;;5062655;28;20134;-28
2023/09/27 06:29:10;;;;;;;40.90;36.72;;;13.00;99.90;;;;;;5073193;28;20519;-28
2023/09/27 06:31:36;;;;;;;39.00;34.97;;;13.00;99.90;;;;;;5059546;28;20079;-27
2023/09/27 06:34:02;;;;;;;41.35;36.97;;;13.00;99.90;;;;;;5071252;28;20515;-27
2023/09/27 06:36:34;;;;;;;44.53;38.25;;;13.10;99.90;;;;;;5059513;28;20407;-27
2023/09/27 06:39:00;;;;;;;40.95;36.67;;;13.10;99.90;;;;;;5066838;28;20492;-26
2023/09/27 06:41:26;;;;;;;44.72;39.05;;;13.10;99.90;;;;;;5065357;28;20172;-27
2023/09/27 06:43:53;;;;;;;50.83;45.30;;;13.10;99.90;;;;;;5067366;28;20108;-27
2023/09/27 06:46:19;;;;;;;43.67;38.97;;;13.20;99.90;;;;;;5052324;28;20115;-28
2023/09/27 06:48:45;;;;;;;49.17;43.88;;;13.20;99.90;;;;;;5059487;28;20168;-28
2023/09/27 06:51:13;;;;;;;51.05;45.38;;;13.20;99.90;;;;;;5066504;28;20040;-27
2023/09/27 06:53:39;;;;;;;45.13;40.30;;;13.20;99.90;;;;;;5059254;28;20073;-27
2023/09/27 06:56:06;;;;;;;51.53;45.80;;;13.30;99.90;;;;;;5065117;28;20033;-28
2023/09/27 06:58:32;;;;;;;51.83;45.90;;;13.30;99.90;;;;;;5069116;28;20040;-28
2023/09/27 07:00:58;;;;;;;47.17;42.30;;;13.40;99.90;;;;;;5062810;28;20115;-27
2023/09/27 07:03:24;;;;;;;50.25;44.60;;;13.50;99.90;;;;;;5074820;28;20037;-28
2023/09/27 07:05:51;;;;;;;49.42;43.92;;;13.60;99.90;;;;;;5066344;28;20090;-27
2023/09/27 07:08:17;;;;;;;48.40;43.15;;;13.70;99.90;;;;;;5062448;28;20028;-27
2023/09/27 07:10:44;;;;;;;50.40;45.05;;;13.80;99.90;;;;;;5056903;28;20399;-27
2023/09/27 07:13:10;;;;;;;57.13;47.25;;;13.90;99.90;;;;;;5052618;28;20095;-27
2023/09/27 07:15:36;;;;;;;48.58;43.38;;;14.00;99.90;;;;;;5057057;28;20045;-28
2023/09/27 07:18:03;;;;;;;49.53;44.28;;;14.10;99.90;;;;;;5062382;28;20040;-27
2023/09/27 07:20:33;;;;;;;52.72;47.13;;;14.20;99.90;;;;;;5047393;28;20091;-26
2023/09/27 07:22:59;;;;;;;54.92;48.70;;;14.30;99.90;;;;;;5059921;28;20036;-27
2023/09/27 07:25:25;;;;;;;52.33;46.47;;;14.40;99.90;;;;;;5059802;28;20036;-28
2023/09/27 07:27:51;;;;;;;52.67;46.67;;;14.50;99.90;;;;;;5062897;28;20036;-28
2023/09/27 07:30:18;;;;;;;50.00;44.65;;;14.60;99.90;;;;;;5059555;28;20036;-28
2023/09/27 07:32:50;;;;;;;49.85;44.47;;;14.70;99.90;;;;;;5044024;28;20041;-28
2023/09/27 07:35:18;;;;;;;47.28;42.40;;;14.80;99.90;;;;;;5068620;28;20553;-28
2023/09/27 07:37:44;;;;;;;46.75;41.97;;;14.80;99.90;;;;;;5060379;28;20508;-27
2023/09/27 07:40:11;;;;;;;48.40;42.45;;;14.90;99.90;;;;;;5062944;28;20060;-27
2023/09/27 07:42:42;;;;;;;49.67;44.53;;;15.00;99.90;;;;;;5057394;28;20076;-27
2023/09/27 07:45:16;;;;;;;53.08;47.13;;;15.10;99.90;;;;;;5059908;28;20075;-27
2023/09/27 07:47:42;;;;;;;47.08;42.08;;;15.20;99.90;;;;;;5061634;28;20040;-27
2023/09/27 07:50:10;;;;;;;47.40;42.55;;;15.20;99.90;;;;;;5039919;28;20029;-27
2023/09/27 07:52:36;;;;;;;45.47;40.58;;;15.30;99.90;;;;;;5063673;28;20048;-29
2023/09/27 07:55:04;;;;;;;47.92;42.88;;;15.40;99.90;;;;;;5067136;28;20093;-29
2023/09/27 07:57:30;;;;;;;45.58;40.97;;;15.50;99.90;;;;;;5059934;28;20040;-27
2023/09/27 07:59:56;;;;;;;48.10;42.67;;;15.50;99.90;;;;;;5046612;28;20059;-28
2023/09/27 08:02:22;;;;;;;47.83;42.90;;;15.60;99.90;;;;;;5066021;28;20032;-28
2023/09/27 08:04:49;;;;;;;47.38;42.47;;;15.70;99.90;;;;;;5063282;28;20044;-27
2023/09/27 08:07:15;;;;;;;47.22;41.05;;;15.90;99.90;;;;;;5061077;28;20233;-27
2023/09/27 08:09:42;;;;;;;46.22;41.50;;;15.90;99.90;;;;;;5056615;28;20035;-27
2023/09/27 08:12:07;;;;;;;46.38;41.70;;;15.90;99.90;;;;;;5053238;28;20381;-28
2023/09/27 08:14:36;;;;;;;47.00;42.10;;;15.90;99.90;;;;;;5067908;28;20045;-26
2023/09/27 08:17:02;;;;;;;43.47;38.97;;;15.90;99.90;;;;;;5057292;28;20040;-28
2023/09/27 08:19:29;;;;;;;47.88;41.63;;;15.90;99.90;;;;;;5060082;28;20115;-27
2023/09/27 08:21:56;;;;;;;44.42;39.85;;;16.10;99.90;;;;;;5064215;28;20044;-27
2023/09/27 08:24:22;;;;;;;47.67;42.65;;;16.30;99.90;;;;;;5065461;28;20033;-28
2023/09/27 08:26:48;;;;;;;45.45;40.88;;;16.70;99.90;;;;;;5066924;28;20040;-28
2023/09/27 08:29:14;;;;;;;42.08;37.88;;;17.10;99.90;;;;;;5057135;28;20040;-27
2023/09/27 08:31:40;;;;;;;42.58;38.22;;;17.40;99.90;;;;;;5069266;28;20049;-29
2023/09/27 08:34:05;;;;;;;40.38;36.25;;;17.60;99.90;;;;;;5038678;28;20547;-28
2023/09/27 08:36:31;;;;;;;41.08;36.60;;;17.70;99.90;;;;;;5058351;28;20044;-28
2023/09/27 08:38:57;;;;;;;37.88;34.08;;;18.10;99.90;;;;;;5055108;28;20037;-29
2023/09/27 08:41:23;;;;;;;38.00;33.95;;;18.60;99.90;;;;;;5057997;28;20594;-28
2023/09/27 08:43:51;;;;;;;36.65;33.00;;;18.90;99.90;;;;;;5067090;28;20031;-28
2023/09/27 08:46:20;;;;;;;37.00;33.40;;;19.20;99.90;;;;;;5053790;28;20052;-28
2023/09/27 08:48:48;;;;;;;35.33;31.85;;;19.40;99.90;;;;;;5060129;28;20239;-27
2023/09/27 08:51:14;;;;;;;34.92;31.33;;;19.50;99.90;;;;;;5068184;28;20041;-27
2023/09/27 08:53:42;;;;;;;34.58;31.25;;;19.60;99.90;;;;;;5059000;28;20525;-28
2023/09/27 08:56:16;;;;;;;33.65;30.42;;;19.70;99.90;;;;;;5053809;28;20144;-28
2023/09/27 08:58:45;;;;;;;32.38;29.15;;;19.90;99.90;;;;;;5063248;28;20509;-29
2023/09/27 09:01:11;;;;;;;33.55;30.45;;;20.30;99.90;;;;;;5059351;28;20491;-27
2023/09/27 09:03:37;;;;;;;32.42;29.33;;;20.80;99.90;;;;;;5068553;28;20112;-28
2023/09/27 09:06:10;;;;;;;31.27;28.27;;;21.00;99.90;;;;;;5068510;28;20040;-31
2023/09/27 09:08:43;;;;;;;31.17;28.33;;;21.30;99.90;;;;;;5071923;28;20048;-27
2023/09/27 09:11:10;;;;;;;32.17;29.17;;;21.20;99.90;;;;;;5062309;28;20048;-28
2023/09/27 09:13:56;;;;;;;31.08;28.23;;;21.10;99.90;;;;;;5068124;28;20076;-28
2023/09/27 09:16:23;;;;;;;29.42;26.38;;;21.30;99.90;;;;;;5042914;28;20102;-28
2023/09/27 09:18:52;;;;;;;31.25;28.20;;;21.70;99.90;;;;;;5059485;28;20048;-28
2023/09/27 09:21:19;;;;;;;32.28;29.40;;;21.80;99.90;;;;;;5063095;28;20037;-28
2023/09/27 09:23:49;;;;;;;29.98;27.30;;;21.70;99.90;;;;;;5069869;28;20545;-27
2023/09/27 09:26:29;;;;;;;30.35;27.23;;;21.60;99.90;;;;;;5058123;28;20037;-29
2023/09/27 09:28:57;;;;;;;29.50;26.85;;;21.40;99.90;;;;;;5062957;28;20036;-28
2023/09/27 09:31:30;;;;;;;29.55;26.85;;;21.30;99.90;;;;;;5040051;28;20044;-28
2023/09/27 09:34:10;;;;;;;30.75;27.90;;;21.20;99.90;;;;;;5066482;28;20391;-29
2023/09/27 09:36:39;;;;;;;29.73;26.83;;;21.20;99.90;;;;;;5060821;28;20037;-28
2023/09/27 09:39:16;;;;;;;30.85;28.00;;;21.00;99.90;;;;;;5047621;28;20040;-29
2023/09/27 09:41:49;;;;;;;32.63;29.42;;;20.90;99.90;;;;;;5069748;28;20041;-28
2023/09/27 09:44:20;;;;;;;29.70;27.10;;;20.80;99.90;;;;;;5059265;28;20291;-29
2023/09/27 09:46:47;;;;;;;31.70;28.75;;;20.80;99.90;;;;;;5060030;28;20113;-28
2023/09/27 09:49:16;;;;;;;31.27;28.25;;;20.90;99.90;;;;;;5060214;28;20045;-28
2023/09/27 09:51:47;;;;;;;29.40;26.70;;;20.80;99.90;;;;;;5066569;28;20090;-28
2023/09/27 09:54:18;;;;;;;29.90;27.20;;;20.80;99.90;;;;;;5062829;28;20072;-28
2023/09/27 09:56:47;;;;;;;28.48;25.70;;;20.80;99.90;;;;;;5063140;28;20044;-28
2023/09/27 09:59:15;;;;;;;29.90;26.95;;;20.80;99.90;;;;;;5058158;28;20040;-28
2023/09/27 10:01:42;;;;;;;31.02;27.90;;;20.80;99.90;;;;;;5069094;28;20518;-28
2023/09/27 10:04:08;;;;;;;31.35;28.42;;;20.80;99.90;;;;;;5047401;28;20040;-28
2023/09/27 10:06:36;;;;;;;30.23;27.20;;;21.00;99.90;;;;;;5067293;28;20056;-28
2023/09/27 10:09:05;;;;;;;28.77;25.88;;;21.40;99.90;;;;;;5061644;28;20025;-28
2023/09/27 10:11:31;;;;;;;27.88;25.27;;;21.90;99.90;;;;;;5062171;28;20044;-28
2023/09/27 10:14:00;;;;;;;25.42;23.23;;;22.30;99.90;;;;;;5062548;28;20036;-28
2023/09/27 10:16:26;;;;;;;24.77;22.55;;;22.50;99.90;;;;;;5065806;28;20072;-29
2023/09/27 10:18:54;;;;;;;25.67;23.40;;;23.00;99.90;;;;;;5069282;28;20075;-28
2023/09/27 10:21:20;;;;;;;24.58;22.23;;;23.20;99.90;;;;;;5065464;28;20045;-28
2023/09/27 10:23:46;;;;;;;26.45;23.95;;;23.00;99.90;;;;;;5057762;28;20052;-28
2023/09/27 10:26:31;;;;;;;25.00;22.63;;;22.90;99.90;;;;;;5042074;28;20075;-28
2023/09/27 10:29:21;;;;;;;25.38;22.88;;;22.70;99.90;;;;;;5062605;28;20099;-28
2023/09/27 10:31:56;;;;;;;26.55;23.90;;;22.50;99.90;;;;;;5058766;28;20052;-28
2023/09/27 10:34:27;;;;;;;26.90;24.25;;;22.50;99.90;;;;;;5071531;28;20565;-28
2023/09/27 10:36:55;;;;;;;27.85;25.33;;;22.70;99.90;;;;;;5058119;28;20037;-31
2023/09/27 10:39:21;;;;;;;26.67;24.40;;;22.90;99.90;;;;;;5060129;28;20073;-29
2023/09/27 10:41:51;;;;;;;27.85;25.25;;;23.00;99.90;;;;;;5083104;28;20091;-28
2023/09/27 10:44:28;;;;;;;27.90;25.33;;;22.90;99.90;;;;;;5055608;28;20496;-28
2023/09/27 10:46:54;;;;;;;26.85;24.15;;;22.90;99.90;;;;;;5054531;28;20083;-28
2023/09/27 10:49:21;;;;;;;26.65;24.02;;;23.20;99.90;;;;;;5054697;28;20396;-26
2023/09/27 10:51:47;;;;;;;24.67;22.35;;;23.60;99.90;;;;;;5054435;28;20049;-28
2023/09/27 10:54:13;;;;;;;23.98;21.60;;;24.20;99.90;;;;;;5054686;28;20052;-28
2023/09/27 10:56:43;;;;;;;22.05;19.95;;;24.90;99.90;;;;;;5054604;28;20492;-27
2023/09/27 10:59:08;;;;;;;20.85;19.05;;;25.50;99.90;;;;;;5054633;28;20492;-26
2023/09/27 11:01:35;;;;;;;22.42;20.42;;;25.60;99.90;;;;;;5053974;28;20048;-27
2023/09/27 11:04:03;;;;;;;21.05;19.05;;;25.50;99.90;;;;;;5036671;28;20041;-28
2023/09/27 11:06:31;;;;;;;20.58;18.50;;;25.50;99.90;;;;;;5036493;28;20052;-28
2023/09/27 11:09:07;;;;;;;20.65;18.85;;;25.70;99.90;;;;;;5054359;28;20516;-28
2023/09/27 11:11:35;;;;;;;20.65;17.88;;;25.70;99.90;;;;;;5054041;28;20049;-28
2023/09/27 11:14:01;;;;;;;18.05;16.45;;;25.50;99.90;;;;;;5054049;28;20491;-27
2023/09/27 11:16:27;;;;;;;19.38;17.67;;;25.30;99.90;;;;;;5036389;28;20116;-28
2023/09/27 11:18:53;;;;;;;18.42;16.83;;;24.90;99.90;;;;;;5054067;28;20029;-26
2023/09/27 11:21:23;;;;;;;18.90;17.02;;;24.80;99.90;;;;;;5054005;28;20052;-27
2023/09/27 11:24:00;;;;;;;18.70;16.75;;;24.70;99.90;;;;;;5054035;28;20487;-27
2023/09/27 11:26:28;;;;;;;18.58;16.88;;;24.30;99.90;;;;;;5054116;28;20153;-27
2023/09/27 11:28:59;;;;;;;18.70;16.85;;;24.20;99.90;;;;;;5053698;28;20041;-28
2023/09/27 11:31:26;;;;;;;21.48;19.38;;;24.00;99.90;;;;;;5053536;28;20049;-27
2023/09/27 11:33:52;;;;;;;20.27;18.52;;;23.80;99.90;;;;;;5053736;28;20167;-28
2023/09/27 11:36:18;;;;;;;21.90;18.63;;;23.70;99.90;;;;;;5053600;28;20076;-28
2023/09/27 11:38:50;;;;;;;21.60;19.17;;;23.70;99.90;;;;;;5053393;28;20041;-26
2023/09/27 11:41:18;;;;;;;21.10;18.60;;;23.80;99.90;;;;;;5053750;28;20052;-29
2023/09/27 11:43:45;;;;;;;19.38;17.48;;;23.90;99.90;;;;;;5053526;28;20037;-28
2023/09/27 11:46:11;;;;;;;18.92;17.30;;;23.90;99.90;;;;;;5034908;28;20041;-29
2023/09/27 11:48:39;;;;;;;17.45;15.65;;;24.00;99.90;;;;;;5053251;28;20033;-26
2023/09/27 11:51:05;;;;;;;19.13;17.15;;;24.00;99.90;;;;;;5053424;28;20511;-27
2023/09/27 11:53:30;;;;;;;17.15;15.60;;;23.90;99.90;;;;;;5053244;28;20033;-28
2023/09/27 11:55:59;;;;;;;16.48;14.98;;;23.80;99.90;;;;;;5053128;28;20041;-30
2023/09/27 11:58:25;;;;;;;17.88;14.30;;;23.80;99.90;;;;;;5035257;28;20071;-27
2023/09/27 12:00:51;;;;;;;16.15;14.55;;;23.70;99.90;;;;;;5053375;28;20103;-29
2023/09/27 12:03:17;;;;;;;15.45;14.02;;;23.60;99.90;;;;;;5052892;28;20530;-27
2023/09/27 12:05:43;;;;;;;15.73;14.13;;;23.60;99.90;;;;;;5053088;28;20045;-28
2023/09/27 12:08:08;;;;;;;14.52;13.10;;;23.50;99.90;;;;;;5053055;28;20040;-28
2023/09/27 12:10:34;;;;;;;14.45;12.45;;;23.40;99.90;;;;;;5053006;28;20041;-28
2023/09/27 12:13:00;;;;;;;12.73;11.43;;;23.30;99.90;;;;;;5052993;28;20051;-27
2023/09/27 12:15:26;;;;;;;12.38;11.27;;;23.40;99.90;;;;;;5052753;28;20037;-29
2023/09/27 12:17:52;;;;;;;13.05;11.75;;;23.30;99.90;;;;;;5052929;28;20040;-27
2023/09/27 12:20:18;;;;;;;12.60;11.38;;;23.30;99.90;;;;;;5053024;28;20044;-27
2023/09/27 12:22:43;;;;;;;11.52;10.32;;;23.30;99.90;;;;;;5052558;28;20048;-27
2023/09/27 12:25:11;;;;;;;11.73;10.63;;;23.30;99.90;;;;;;5053116;28;20128;-30
2023/09/27 12:27:36;;;;;;;11.13;10.13;;;23.30;99.90;;;;;;5052910;28;20032;-28